DIRECCIÓN GENERAL DE AERONÁUTICA CIVIL
DIRECCIÓN METEOROLÓGICA DE CHILE
INFORMACIÓN METAR Y TAF

FIR PUERTO MONTT

Estación: SCQP
METAR SCQP 260400Z 29005KT 260V330 9999 OVC006 11/10 Q1013=

TAF SCQP 252218Z 2600/2624 24004KT CAVOK TN03/2607Z TX21/2619Z BECMG 2604/2606 VRB02KT 2000 BR BKN005 TEMPO 2606/2611 VRB01KT 0600 FG OVC003 BECMG 2613/2615 24004KT 9999 NSW SCT015 BECMG 2615/2617 FEW025 =

Estación: SCVD
METAR SCVD 260400Z AUTO VRB02KT CAVOK 08/07 Q1012=

TAF SCVD 251618Z 2518/2606 15005KT CAVOK TX23/2519Z TN06/2606Z=

Estación: SCJO
METAR SCJO 252200Z VRB02KT CAVOK 22/09 Q1011=

TAF SCJO 261617Z 2518/2606 18005KT CAVOK TX20/2520Z TN05/2606Z=

Estación: SCTE
METAR SCTE 260400Z 19003KT CAVOK 08/07 Q1013 NOSIG=

TAF SCTE 252218Z 2600/2624 18004KT CAVOK TN04/2607Z TX16/2620Z BECMG 2601/2603 SCT018 BECMG 2606/2608 24003KT 5000 BR BKN005 PROB40 TEMPO 2608/2612 VRB01KT 0800 BCFG OVC003 BECMG 2613/2615 25005KT 9999 NSW SCT020 BKN120=

Estación: SCPQ
METAR SCPQ 260400Z AUTO 14003KT 080V160 5000 OVC006 08/08 Q1012=

TAF SCPQ 251617Z 2518/2606 18005KT 9999 SCT015 TX15/2520Z TN06/2606Z BECMG 2518/2520 SCT022 BECMG 2520/2522 FEW025=

Estación: SCON
METAR SCON 260400Z AUTO VRB01KT 9999 ///019 09/07 Q1013=

TAF SCON 251616Z 2518/2606 24004KT 9999 FEW020 TX15/2519Z TN08/2606Z=

Estación: SCTN
NIL=

NIL=

Estación: SCFT
METAR SCFT 260400Z AUTO 29003KT 240V320 CAVOK 07/02 Q1011=

NIL=

Estación: SCAP
METAR SCAP 260400Z AUTO VRB02KT //// // NSC 08/02 Q1016=

NIL=

Estación: SCMK
METAR SCMK 251600Z VRB03KT 9999 BKN025 13/06 Q1015=

TAF SCMK 251616Z 2518/2606 27005KT 9999 SCT025 TX15/2519Z TN08/2606Z BECMG 2518/2520 FEW025=

Estación: SCAS
METAR SCAS 241900Z 25018KT 180V320 CAVOK 16/04 Q1018=

NIL=

Estación: SCCY
METAR SCCY 260000Z 22005KT 9999 FEW033 12/00 Q1009=

TAF SCCY 251615Z 2518/2606 28009KT CAVOK TX20/2519Z TN07/2606Z TEMPO 2518/2523 29009G19KT FEW033=

Estación: SCBA
METAR SCBA 260400Z AUTO 31017KT CAVOK 06/00 Q1006=

TAF SCBA 252217Z 2600/2624 31020KT CAVOK TN04/2607Z TX14/2619Z TEMPO 2600/2606 31025G37KT BECMG 2602/2604 SCT040 BECMG 2616/2618 31025G37KT=

Estación: SCCC
METAR SCCC 260300Z AUTO 16004KT 140V260 CAVOK 05/M03 Q1005=

NIL=

Estación: SCHR
METAR SCHR 260300Z AUTO 33004KT 240V050 CAVOK 07/M00 Q1004=

TAF SCHR 241050Z 2412/2500 28010KT CAVOK TN06/2412Z TX17/2419Z TEMPO 2415/2419 VRB03KT=


Volver